sensor_id;sensor_type;location;lat;lon;timestamp;P1;durP1;ratioP1;P2;durP2;ratioP2
69280;SDS011;56392;51.082;17.080;2023-03-01T00:02:39;63.65;;;26.65;;
69280;SDS011;56392;51.082;17.080;2023-03-01T00:08:04;68.20;;;26.70;;
69280;SDS011;56392;51.082;17.080;2023-03-01T00:13:27;66.90;;;26.70;;
69280;SDS011;56392;51.082;17.080;2023-03-01T00:18:51;67.80;;;28.00;;
69280;SDS011;56392;51.082;17.080;2023-03-01T00:24:15;65.27;;;28.10;;
69280;SDS011;56392;51.082;17.080;2023-03-01T00:29:39;68.00;;;27.50;;
69280;SDS011;56392;51.082;17.080;2023-03-01T00:35:02;72.13;;;27.70;;
69280;SDS011;56392;51.082;17.080;2023-03-01T00:40:26;67.10;;;27.07;;
69280;SDS011;56392;51.082;17.080;2023-03-01T00:45:51;68.90;;;28.50;;
69280;SDS011;56392;51.082;17.080;2023-03-01T00:51:15;67.82;;;29.02;;
69280;SDS011;56392;51.082;17.080;2023-03-01T00:56:40;67.20;;;29.13;;
69280;SDS011;56392;51.082;17.080;2023-03-01T01:02:03;70.37;;;28.33;;
69280;SDS011;56392;51.082;17.080;2023-03-01T01:07:26;61.70;;;26.20;;
69280;SDS011;56392;51.082;17.080;2023-03-01T01:12:51;76.37;;;29.77;;
69280;SDS011;56392;51.082;17.080;2023-03-01T01:18:14;79.65;;;29.58;;
69280;SDS011;56392;51.082;17.080;2023-03-01T01:23:37;72.03;;;29.05;;
69280;SDS011;56392;51.082;17.080;2023-03-01T01:29:03;77.50;;;28.93;;
69280;SDS011;56392;51.082;17.080;2023-03-01T01:34:27;66.95;;;28.83;;
69280;SDS011;56392;51.082;17.080;2023-03-01T01:39:50;76.20;;;30.87;;
69280;SDS011;56392;51.082;17.080;2023-03-01T01:51:03;78.93;;;32.17;;
69280;SDS011;56392;51.082;17.080;2023-03-01T01:56:27;69.13;;;29.43;;
69280;SDS011;56392;51.082;17.080;2023-03-01T02:01:52;74.95;;;29.20;;
69280;SDS011;56392;51.082;17.080;2023-03-01T02:07:16;68.40;;;28.48;;
69280;SDS011;56392;51.082;17.080;2023-03-01T02:12:42;76.10;;;29.77;;
69280;SDS011;56392;51.082;17.080;2023-03-01T02:18:07;70.90;;;28.58;;
69280;SDS011;56392;51.082;17.080;2023-03-01T02:23:33;70.43;;;28.20;;
69280;SDS011;56392;51.082;17.080;2023-03-01T02:28:58;72.15;;;27.95;;
69280;SDS011;56392;51.082;17.080;2023-03-01T02:34:22;74.00;;;29.08;;
69280;SDS011;56392;51.082;17.080;2023-03-01T02:39:48;73.87;;;28.90;;
69280;SDS011;56392;51.082;17.080;2023-03-01T02:45:17;75.18;;;27.35;;
69280;SDS011;56392;51.082;17.080;2023-03-01T02:50:46;68.13;;;28.47;;
69280;SDS011;56392;51.082;17.080;2023-03-01T02:56:18;74.07;;;28.77;;
69280;SDS011;56392;51.082;17.080;2023-03-01T03:01:42;74.38;;;29.10;;
69280;SDS011;56392;51.082;17.080;2023-03-01T03:07:07;73.63;;;29.07;;
69280;SDS011;56392;51.082;17.080;2023-03-01T03:12:30;69.85;;;29.15;;
69280;SDS011;56392;51.082;17.080;2023-03-01T03:17:55;71.18;;;28.80;;
69280;SDS011;56392;51.082;17.080;2023-03-01T03:23:20;67.10;;;26.87;;
69280;SDS011;56392;51.082;17.080;2023-03-01T03:28:44;70.72;;;27.20;;
69280;SDS011;56392;51.082;17.080;2023-03-01T03:34:09;67.37;;;26.37;;
69280;SDS011;56392;51.082;17.080;2023-03-01T03:39:39;71.45;;;28.23;;
69280;SDS011;56392;51.082;17.080;2023-03-01T03:45:02;68.55;;;27.15;;
69280;SDS011;56392;51.082;17.080;2023-03-01T03:50:27;69.17;;;27.97;;
69280;SDS011;56392;51.082;17.080;2023-03-01T03:55:51;69.93;;;27.67;;
69280;SDS011;56392;51.082;17.080;2023-03-01T04:01:14;63.90;;;27.43;;
69280;SDS011;56392;51.082;17.080;2023-03-01T04:06:39;66.40;;;26.75;;
69280;SDS011;56392;51.082;17.080;2023-03-01T04:12:02;70.20;;;28.45;;
69280;SDS011;56392;51.082;17.080;2023-03-01T04:17:26;66.30;;;27.27;;
69280;SDS011;56392;51.082;17.080;2023-03-01T04:22:51;64.55;;;26.48;;
69280;SDS011;56392;51.082;17.080;2023-03-01T04:28:15;69.10;;;27.73;;
69280;SDS011;56392;51.082;17.080;2023-03-01T04:33:38;69.50;;;26.75;;
69280;SDS011;56392;51.082;17.080;2023-03-01T04:39:04;65.20;;;27.88;;
69280;SDS011;56392;51.082;17.080;2023-03-01T04:44:33;73.00;;;28.57;;
69280;SDS011;56392;51.082;17.080;2023-03-01T04:49:56;69.57;;;27.42;;
69280;SDS011;56392;51.082;17.080;2023-03-01T04:55:21;65.10;;;26.87;;
69280;SDS011;56392;51.082;17.080;2023-03-01T05:00:47;66.18;;;27.02;;
69280;SDS011;56392;51.082;17.080;2023-03-01T05:06:10;67.13;;;26.80;;
69280;SDS011;56392;51.082;17.080;2023-03-01T05:11:36;66.53;;;27.03;;
69280;SDS011;56392;51.082;17.080;2023-03-01T05:16:59;63.78;;;26.73;;
69280;SDS011;56392;51.082;17.080;2023-03-01T05:22:25;64.03;;;27.10;;
69280;SDS011;56392;51.082;17.080;2023-03-01T05:27:49;75.85;;;28.73;;
69280;SDS011;56392;51.082;17.080;2023-03-01T05:33:13;67.22;;;27.75;;
69280;SDS011;56392;51.082;17.080;2023-03-01T05:38:36;66.23;;;27.17;;
69280;SDS011;56392;51.082;17.080;2023-03-01T05:44:00;67.38;;;28.08;;
69280;SDS011;56392;51.082;17.080;2023-03-01T05:49:26;66.13;;;27.97;;
69280;SDS011;56392;51.082;17.080;2023-03-01T05:54:49;71.55;;;27.88;;
69280;SDS011;56392;51.082;17.080;2023-03-01T06:00:14;68.22;;;28.17;;
69280;SDS011;56392;51.082;17.080;2023-03-01T06:05:39;76.20;;;29.60;;
69280;SDS011;56392;51.082;17.080;2023-03-01T06:11:02;65.88;;;27.92;;
69280;SDS011;56392;51.082;17.080;2023-03-01T06:16:28;70.77;;;26.93;;
69280;SDS011;56392;51.082;17.080;2023-03-01T06:21:51;78.82;;;30.42;;
69280;SDS011;56392;51.082;17.080;2023-03-01T06:27:14;68.05;;;27.50;;
69280;SDS011;56392;51.082;17.080;2023-03-01T06:32:38;72.30;;;27.47;;
69280;SDS011;56392;51.082;17.080;2023-03-01T06:38:03;70.80;;;28.40;;
69280;SDS011;56392;51.082;17.080;2023-03-01T06:43:27;64.67;;;28.00;;
69280;SDS011;56392;51.082;17.080;2023-03-01T06:48:51;69.78;;;28.95;;
69280;SDS011;56392;51.082;17.080;2023-03-01T06:54:15;80.70;;;30.45;;
69280;SDS011;56392;51.082;17.080;2023-03-01T06:59:39;75.23;;;30.30;;
69280;SDS011;56392;51.082;17.080;2023-03-01T07:05:04;76.30;;;30.60;;
69280;SDS011;56392;51.082;17.080;2023-03-01T07:10:29;70.63;;;28.87;;
69280;SDS011;56392;51.082;17.080;2023-03-01T07:15:52;71.30;;;29.63;;
69280;SDS011;56392;51.082;17.080;2023-03-01T07:21:16;72.35;;;30.60;;
69280;SDS011;56392;51.082;17.080;2023-03-01T07:26:40;73.97;;;29.80;;
69280;SDS011;56392;51.082;17.080;2023-03-01T07:32:03;73.95;;;29.02;;
69280;SDS011;56392;51.082;17.080;2023-03-01T07:37:28;77.87;;;29.77;;
69280;SDS011;56392;51.082;17.080;2023-03-01T07:42:54;83.27;;;32.13;;
69280;SDS011;56392;51.082;17.080;2023-03-01T07:48:18;74.53;;;30.23;;
69280;SDS011;56392;51.082;17.080;2023-03-01T07:53:44;67.57;;;28.40;;
69280;SDS011;56392;51.082;17.080;2023-03-01T07:59:08;75.45;;;29.10;;
69280;SDS011;56392;51.082;17.080;2023-03-01T08:04:31;65.53;;;26.63;;
69280;SDS011;56392;51.082;17.080;2023-03-01T08:09:56;63.67;;;28.90;;
69280;SDS011;56392;51.082;17.080;2023-03-01T08:15:19;66.97;;;28.17;;
69280;SDS011;56392;51.082;17.080;2023-03-01T08:20:43;61.33;;;25.97;;
69280;SDS011;56392;51.082;17.080;2023-03-01T08:26:10;64.97;;;26.37;;
69280;SDS011;56392;51.082;17.080;2023-03-01T08:31:37;64.72;;;26.85;;
69280;SDS011;56392;51.082;17.080;2023-03-01T08:37:02;55.00;;;23.67;;
69280;SDS011;56392;51.082;17.080;2023-03-01T08:42:27;57.00;;;25.07;;
69280;SDS011;56392;51.082;17.080;2023-03-01T08:47:51;40.83;;;18.92;;
69280;SDS011;56392;51.082;17.080;2023-03-01T08:53:15;36.45;;;16.42;;
69280;SDS011;56392;51.082;17.080;2023-03-01T08:58:39;40.50;;;17.53;;
69280;SDS011;56392;51.082;17.080;2023-03-01T09:04:02;39.53;;;17.15;;
69280;SDS011;56392;51.082;17.080;2023-03-01T09:09:25;36.40;;;15.65;;
69280;SDS011;56392;51.082;17.080;2023-03-01T09:14:50;35.40;;;13.53;;
69280;SDS011;56392;51.082;17.080;2023-03-01T09:20:13;33.75;;;14.65;;
69280;SDS011;56392;51.082;17.080;2023-03-01T09:25:36;32.95;;;14.95;;
69280;SDS011;56392;51.082;17.080;2023-03-01T09:31:01;36.00;;;15.20;;
69280;SDS011;56392;51.082;17.080;2023-03-01T09:36:27;35.50;;;14.50;;
69280;SDS011;56392;51.082;17.080;2023-03-01T09:41:53;34.55;;;14.43;;
69280;SDS011;56392;51.082;17.080;2023-03-01T09:47:25;32.22;;;14.07;;
69280;SDS011;56392;51.082;17.080;2023-03-01T09:52:52;34.80;;;15.17;;
69280;SDS011;56392;51.082;17.080;2023-03-01T09:58:29;29.95;;;13.55;;
69280;SDS011;56392;51.082;17.080;2023-03-01T10:04:12;36.60;;;14.13;;
69280;SDS011;56392;51.082;17.080;2023-03-01T10:09:51;29.10;;;13.67;;
69280;SDS011;56392;51.082;17.080;2023-03-01T10:15:15;28.48;;;13.40;;
69280;SDS011;56392;51.082;17.080;2023-03-01T10:20:45;26.23;;;12.00;;
69280;SDS011;56392;51.082;17.080;2023-03-01T10:26:17;29.13;;;13.37;;
69280;SDS011;56392;51.082;17.080;2023-03-01T10:31:54;28.50;;;13.35;;
69280;SDS011;56392;51.082;17.080;2023-03-01T10:37:19;28.08;;;13.02;;
69280;SDS011;56392;51.082;17.080;2023-03-01T10:42:46;29.43;;;13.10;;
69280;SDS011;56392;51.082;17.080;2023-03-01T10:48:12;28.17;;;13.00;;
69280;SDS011;56392;51.082;17.080;2023-03-01T10:53:40;28.17;;;12.40;;
69280;SDS011;56392;51.082;17.080;2023-03-01T10:59:05;24.45;;;11.45;;
69280;SDS011;56392;51.082;17.080;2023-03-01T11:04:55;28.00;;;12.77;;
69280;SDS011;56392;51.082;17.080;2023-03-01T11:10:23;27.95;;;13.27;;
69280;SDS011;56392;51.082;17.080;2023-03-01T11:15:58;27.75;;;12.65;;
69280;SDS011;56392;51.082;17.080;2023-03-01T11:21:22;24.97;;;12.10;;
69280;SDS011;56392;51.082;17.080;2023-03-01T11:26:50;27.70;;;11.32;;
69280;SDS011;56392;51.082;17.080;2023-03-01T11:32:16;25.58;;;11.50;;
69280;SDS011;56392;51.082;17.080;2023-03-01T11:37:44;23.63;;;11.27;;
69280;SDS011;56392;51.082;17.080;2023-03-01T11:43:20;25.20;;;10.90;;
69280;SDS011;56392;51.082;17.080;2023-03-01T11:48:52;20.90;;;9.93;;
69280;SDS011;56392;51.082;17.080;2023-03-01T11:54:32;23.88;;;10.38;;
69280;SDS011;56392;51.082;17.080;2023-03-01T12:00:10;18.97;;;9.07;;
69280;SDS011;56392;51.082;17.080;2023-03-01T12:11:50;21.23;;;9.70;;
69280;SDS011;56392;51.082;17.080;2023-03-01T12:17:28;21.47;;;10.00;;
69280;SDS011;56392;51.082;17.080;2023-03-01T12:23:22;24.02;;;10.70;;
69280;SDS011;56392;51.082;17.080;2023-03-01T12:28:57;25.23;;;11.57;;
69280;SDS011;56392;51.082;17.080;2023-03-01T12:46:21;19.88;;;8.45;;
69280;SDS011;56392;51.082;17.080;2023-03-01T12:51:56;14.23;;;5.85;;
69280;SDS011;56392;51.082;17.080;2023-03-01T12:57:25;14.80;;;6.10;;
69280;SDS011;56392;51.082;17.080;2023-03-01T13:02:59;13.85;;;5.93;;
69280;SDS011;56392;51.082;17.080;2023-03-01T13:08:35;15.35;;;6.65;;
69280;SDS011;56392;51.082;17.080;2023-03-01T13:19:59;16.83;;;7.43;;
69280;SDS011;56392;51.082;17.080;2023-03-01T13:25:24;18.30;;;7.10;;
69280;SDS011;56392;51.082;17.080;2023-03-01T13:30:48;15.63;;;7.50;;
69280;SDS011;56392;51.082;17.080;2023-03-01T13:36:45;15.23;;;6.17;;
69280;SDS011;56392;51.082;17.080;2023-03-01T13:48:01;15.77;;;7.10;;
69280;SDS011;56392;51.082;17.080;2023-03-01T13:53:31;19.03;;;7.10;;
69280;SDS011;56392;51.082;17.080;2023-03-01T13:59:01;16.00;;;7.38;;
69280;SDS011;56392;51.082;17.080;2023-03-01T14:04:28;16.35;;;7.43;;
69280;SDS011;56392;51.082;17.080;2023-03-01T14:09:54;18.63;;;7.70;;
69280;SDS011;56392;51.082;17.080;2023-03-01T14:15:22;18.13;;;8.10;;
69280;SDS011;56392;51.082;17.080;2023-03-01T14:20:50;20.30;;;8.40;;
69280;SDS011;56392;51.082;17.080;2023-03-01T14:26:14;19.37;;;8.07;;
69280;SDS011;56392;51.082;17.080;2023-03-01T14:31:45;19.87;;;8.97;;
69280;SDS011;56392;51.082;17.080;2023-03-01T14:37:17;23.85;;;9.77;;
69280;SDS011;56392;51.082;17.080;2023-03-01T14:42:43;20.77;;;8.52;;
69280;SDS011;56392;51.082;17.080;2023-03-01T14:48:08;18.00;;;8.07;;
69280;SDS011;56392;51.082;17.080;2023-03-01T14:53:34;19.63;;;9.13;;
69280;SDS011;56392;51.082;17.080;2023-03-01T14:58:57;19.58;;;9.07;;
69280;SDS011;56392;51.082;17.080;2023-03-01T15:04:23;18.63;;;8.73;;
69280;SDS011;56392;51.082;17.080;2023-03-01T15:09:47;21.42;;;9.15;;
69280;SDS011;56392;51.082;17.080;2023-03-01T15:21:02;20.27;;;9.30;;
69280;SDS011;56392;51.082;17.080;2023-03-01T15:26:29;21.43;;;10.07;;
69280;SDS011;56392;51.082;17.080;2023-03-01T15:31:58;21.08;;;9.60;;
69280;SDS011;56392;51.082;17.080;2023-03-01T15:37:40;18.98;;;8.68;;
69280;SDS011;56392;51.082;17.080;2023-03-01T15:43:14;21.13;;;10.07;;
69280;SDS011;56392;51.082;17.080;2023-03-01T15:49:18;20.58;;;9.32;;
69280;SDS011;56392;51.082;17.080;2023-03-01T15:54:49;21.08;;;9.27;;
69280;SDS011;56392;51.082;17.080;2023-03-01T16:00:13;23.87;;;9.90;;
69280;SDS011;56392;51.082;17.080;2023-03-01T16:05:38;22.33;;;9.18;;
69280;SDS011;56392;51.082;17.080;2023-03-01T16:11:03;20.85;;;10.13;;
69280;SDS011;56392;51.082;17.080;2023-03-01T16:16:27;21.20;;;9.43;;
69280;SDS011;56392;51.082;17.080;2023-03-01T16:21:51;19.23;;;8.87;;
69280;SDS011;56392;51.082;17.080;2023-03-01T16:27:16;20.20;;;9.25;;
69280;SDS011;56392;51.082;17.080;2023-03-01T16:32:42;23.73;;;9.18;;
69280;SDS011;56392;51.082;17.080;2023-03-01T16:38:07;24.17;;;9.60;;
69280;SDS011;56392;51.082;17.080;2023-03-01T16:43:33;19.98;;;8.80;;
69280;SDS011;56392;51.082;17.080;2023-03-01T16:48:57;19.98;;;9.05;;
69280;SDS011;56392;51.082;17.080;2023-03-01T16:54:21;20.70;;;9.37;;
69280;SDS011;56392;51.082;17.080;2023-03-01T16:59:52;21.05;;;8.63;;
69280;SDS011;56392;51.082;17.080;2023-03-01T17:05:15;21.25;;;8.68;;
69280;SDS011;56392;51.082;17.080;2023-03-01T17:10:39;21.13;;;8.70;;
69280;SDS011;56392;51.082;17.080;2023-03-01T17:16:05;23.03;;;10.70;;
69280;SDS011;56392;51.082;17.080;2023-03-01T17:21:31;24.30;;;10.68;;
69280;SDS011;56392;51.082;17.080;2023-03-01T17:26:54;25.77;;;10.73;;
69280;SDS011;56392;51.082;17.080;2023-03-01T17:32:19;24.57;;;11.00;;
69280;SDS011;56392;51.082;17.080;2023-03-01T17:37:43;21.40;;;9.20;;
69280;SDS011;56392;51.082;17.080;2023-03-01T17:43:06;20.45;;;8.82;;
69280;SDS011;56392;51.082;17.080;2023-03-01T17:48:35;22.30;;;8.70;;
69280;SDS011;56392;51.082;17.080;2023-03-01T17:54:01;24.17;;;9.40;;
69280;SDS011;56392;51.082;17.080;2023-03-01T17:59:24;23.83;;;10.45;;
69280;SDS011;56392;51.082;17.080;2023-03-01T18:04:55;26.93;;;11.43;;
69280;SDS011;56392;51.082;17.080;2023-03-01T18:10:19;29.90;;;14.20;;
69280;SDS011;56392;51.082;17.080;2023-03-01T18:15:43;31.67;;;14.23;;
69280;SDS011;56392;51.082;17.080;2023-03-01T18:21:07;31.58;;;14.40;;
69280;SDS011;56392;51.082;17.080;2023-03-01T18:26:31;30.97;;;13.27;;
69280;SDS011;56392;51.082;17.080;2023-03-01T18:31:55;32.88;;;13.73;;
69280;SDS011;56392;51.082;17.080;2023-03-01T18:37:19;34.85;;;15.13;;
69280;SDS011;56392;51.082;17.080;2023-03-01T18:42:43;38.27;;;15.03;;
69280;SDS011;56392;51.082;17.080;2023-03-01T18:48:06;35.50;;;15.07;;
69280;SDS011;56392;51.082;17.080;2023-03-01T18:53:31;34.75;;;14.82;;
69280;SDS011;56392;51.082;17.080;2023-03-01T18:58:54;34.23;;;13.93;;
69280;SDS011;56392;51.082;17.080;2023-03-01T19:04:17;32.63;;;13.60;;
69280;SDS011;56392;51.082;17.080;2023-03-01T19:09:42;31.60;;;13.32;;
69280;SDS011;56392;51.082;17.080;2023-03-01T19:15:05;37.03;;;14.90;;
69280;SDS011;56392;51.082;17.080;2023-03-01T19:20:29;32.37;;;13.50;;
69280;SDS011;56392;51.082;17.080;2023-03-01T19:25:59;34.75;;;14.73;;
69280;SDS011;56392;51.082;17.080;2023-03-01T19:31:23;35.20;;;14.70;;
69280;SDS011;56392;51.082;17.080;2023-03-01T19:36:48;33.03;;;14.90;;
69280;SDS011;56392;51.082;17.080;2023-03-01T19:42:13;39.33;;;15.70;;
69280;SDS011;56392;51.082;17.080;2023-03-01T19:47:36;37.58;;;16.83;;
69280;SDS011;56392;51.082;17.080;2023-03-01T19:52:59;41.50;;;15.67;;
69280;SDS011;56392;51.082;17.080;2023-03-01T19:58:24;45.83;;;18.60;;
69280;SDS011;56392;51.082;17.080;2023-03-01T20:03:49;47.20;;;18.27;;
69280;SDS011;56392;51.082;17.080;2023-03-01T20:09:12;42.40;;;17.58;;
69280;SDS011;56392;51.082;17.080;2023-03-01T20:14:39;44.43;;;15.80;;
69280;SDS011;56392;51.082;17.080;2023-03-01T20:20:02;33.50;;;13.65;;
69280;SDS011;56392;51.082;17.080;2023-03-01T20:25:26;39.55;;;15.38;;
69280;SDS011;56392;51.082;17.080;2023-03-01T20:30:51;41.07;;;15.40;;
69280;SDS011;56392;51.082;17.080;2023-03-01T20:36:14;43.60;;;16.58;;
69280;SDS011;56392;51.082;17.080;2023-03-01T20:41:38;45.53;;;18.40;;
69280;SDS011;56392;51.082;17.080;2023-03-01T20:47:03;64.87;;;24.37;;
69280;SDS011;56392;51.082;17.080;2023-03-01T20:52:26;68.82;;;25.08;;
69280;SDS011;56392;51.082;17.080;2023-03-01T20:57:49;66.10;;;23.80;;
69280;SDS011;56392;51.082;17.080;2023-03-01T21:03:16;47.27;;;17.77;;
69280;SDS011;56392;51.082;17.080;2023-03-01T21:08:40;38.47;;;15.00;;
69280;SDS011;56392;51.082;17.080;2023-03-01T21:14:03;38.13;;;14.93;;
69280;SDS011;56392;51.082;17.080;2023-03-01T21:19:28;47.20;;;18.27;;
69280;SDS011;56392;51.082;17.080;2023-03-01T21:24:51;58.55;;;22.25;;
69280;SDS011;56392;51.082;17.080;2023-03-01T21:30:14;53.60;;;21.90;;
69280;SDS011;56392;51.082;17.080;2023-03-01T21:35:39;57.80;;;20.40;;
69280;SDS011;56392;51.082;17.080;2023-03-01T21:41:03;50.83;;;19.95;;
69280;SDS011;56392;51.082;17.080;2023-03-01T21:46:28;48.90;;;20.17;;
69280;SDS011;56392;51.082;17.080;2023-03-01T21:51:53;49.17;;;19.63;;
69280;SDS011;56392;51.082;17.080;2023-03-01T21:57:16;43.60;;;17.50;;
69280;SDS011;56392;51.082;17.080;2023-03-01T22:02:40;47.50;;;19.20;;
69280;SDS011;56392;51.082;17.080;2023-03-01T22:08:05;53.87;;;21.00;;
69280;SDS011;56392;51.082;17.080;2023-03-01T22:13:28;59.22;;;23.30;;
69280;SDS011;56392;51.082;17.080;2023-03-01T22:18:51;50.63;;;20.67;;
69280;SDS011;56392;51.082;17.080;2023-03-01T22:24:16;39.93;;;16.90;;
69280;SDS011;56392;51.082;17.080;2023-03-01T22:29:40;37.63;;;15.95;;
69280;SDS011;56392;51.082;17.080;2023-03-01T22:35:04;54.83;;;21.53;;
69280;SDS011;56392;51.082;17.080;2023-03-01T22:40:29;67.67;;;26.03;;
69280;SDS011;56392;51.082;17.080;2023-03-01T22:45:52;64.85;;;26.48;;
69280;SDS011;56392;51.082;17.080;2023-03-01T22:51:17;73.43;;;29.13;;
69280;SDS011;56392;51.082;17.080;2023-03-01T22:56:43;69.53;;;29.57;;
69280;SDS011;56392;51.082;17.080;2023-03-01T23:02:06;81.40;;;31.23;;
69280;SDS011;56392;51.082;17.080;2023-03-01T23:07:29;79.83;;;32.93;;
69280;SDS011;56392;51.082;17.080;2023-03-01T23:12:54;76.17;;;28.43;;
69280;SDS011;56392;51.082;17.080;2023-03-01T23:18:17;76.10;;;30.10;;
69280;SDS011;56392;51.082;17.080;2023-03-01T23:23:41;79.70;;;32.53;;
69280;SDS011;56392;51.082;17.080;2023-03-01T23:29:08;79.27;;;29.07;;
69280;SDS011;56392;51.082;17.080;2023-03-01T23:34:31;81.03;;;28.08;;
69280;SDS011;56392;51.082;17.080;2023-03-01T23:39:55;82.53;;;29.60;;
69280;SDS011;56392;51.082;17.080;2023-03-01T23:45:19;63.08;;;23.80;;
69280;SDS011;56392;51.082;17.080;2023-03-01T23:50:42;80.88;;;26.55;;
69280;SDS011;56392;51.082;17.080;2023-03-01T23:56:06;108.57;;;33.37;;
